sensor_id;sensor_type;location;lat;lon;timestamp;P1;durP1;ratioP1;P2;durP2;ratioP2
50363;SDS011;36272;59.400;17.982;2023-07-22T00:01:25;11.38;;;2.80;;
50363;SDS011;36272;59.400;17.982;2023-07-22T00:06:26;7.75;;;2.65;;
50363;SDS011;36272;59.400;17.982;2023-07-22T00:11:28;6.95;;;2.00;;
50363;SDS011;36272;59.400;17.982;2023-07-22T00:16:30;7.18;;;2.08;;
50363;SDS011;36272;59.400;17.982;2023-07-22T00:21:31;13.18;;;2.13;;
50363;SDS011;36272;59.400;17.982;2023-07-22T00:26:33;5.30;;;2.25;;
50363;SDS011;36272;59.400;17.982;2023-07-22T00:31:37;5.22;;;2.38;;
50363;SDS011;36272;59.400;17.982;2023-07-22T00:36:39;8.68;;;2.10;;
50363;SDS011;36272;59.400;17.982;2023-07-22T00:41:40;7.97;;;2.13;;
50363;SDS011;36272;59.400;17.982;2023-07-22T00:46:45;3.50;;;2.13;;
50363;SDS011;36272;59.400;17.982;2023-07-22T00:51:51;6.95;;;1.92;;
50363;SDS011;36272;59.400;17.982;2023-07-22T00:56:53;6.95;;;2.30;;
50363;SDS011;36272;59.400;17.982;2023-07-22T01:02:00;6.57;;;2.45;;
50363;SDS011;36272;59.400;17.982;2023-07-22T01:07:03;5.50;;;2.50;;
50363;SDS011;36272;59.400;17.982;2023-07-22T01:12:09;8.60;;;2.20;;
50363;SDS011;36272;59.400;17.982;2023-07-22T01:17:15;5.40;;;2.35;;
50363;SDS011;36272;59.400;17.982;2023-07-22T01:22:16;9.77;;;2.50;;
50363;SDS011;36272;59.400;17.982;2023-07-22T01:27:19;5.55;;;2.53;;
50363;SDS011;36272;59.400;17.982;2023-07-22T01:32:21;6.72;;;2.28;;
50363;SDS011;36272;59.400;17.982;2023-07-22T01:37:31;6.82;;;2.38;;
50363;SDS011;36272;59.400;17.982;2023-07-22T01:42:33;11.15;;;2.03;;
50363;SDS011;36272;59.400;17.982;2023-07-22T01:47:52;11.77;;;2.40;;
50363;SDS011;36272;59.400;17.982;2023-07-22T01:52:57;8.98;;;2.25;;
50363;SDS011;36272;59.400;17.982;2023-07-22T01:58:01;6.72;;;1.70;;
50363;SDS011;36272;59.400;17.982;2023-07-22T02:03:05;11.15;;;1.83;;
50363;SDS011;36272;59.400;17.982;2023-07-22T02:08:09;6.28;;;1.85;;
50363;SDS011;36272;59.400;17.982;2023-07-22T02:13:12;4.03;;;1.80;;
50363;SDS011;36272;59.400;17.982;2023-07-22T02:18:13;10.35;;;2.05;;
50363;SDS011;36272;59.400;17.982;2023-07-22T02:23:18;7.00;;;2.00;;
50363;SDS011;36272;59.400;17.982;2023-07-22T02:28:33;7.70;;;1.98;;
50363;SDS011;36272;59.400;17.982;2023-07-22T02:33:48;6.07;;;1.60;;
50363;SDS011;36272;59.400;17.982;2023-07-22T02:38:53;7.85;;;2.15;;
50363;SDS011;36272;59.400;17.982;2023-07-22T02:43:54;6.70;;;1.77;;
50363;SDS011;36272;59.400;17.982;2023-07-22T02:48:56;9.98;;;1.92;;
50363;SDS011;36272;59.400;17.982;2023-07-22T02:54:02;8.35;;;1.85;;
50363;SDS011;36272;59.400;17.982;2023-07-22T02:59:09;6.40;;;1.90;;
50363;SDS011;36272;59.400;17.982;2023-07-22T03:04:10;6.60;;;1.88;;
50363;SDS011;36272;59.400;17.982;2023-07-22T03:09:13;3.50;;;1.88;;
50363;SDS011;36272;59.400;17.982;2023-07-22T03:14:20;6.97;;;1.70;;
50363;SDS011;36272;59.400;17.982;2023-07-22T03:19:23;4.60;;;1.65;;
50363;SDS011;36272;59.400;17.982;2023-07-22T03:24:24;5.97;;;1.75;;
50363;SDS011;36272;59.400;17.982;2023-07-22T03:29:26;6.75;;;2.10;;
50363;SDS011;36272;59.400;17.982;2023-07-22T03:34:29;6.47;;;1.55;;
50363;SDS011;36272;59.400;17.982;2023-07-22T03:39:31;7.63;;;1.70;;
50363;SDS011;36272;59.400;17.982;2023-07-22T03:44:33;9.65;;;1.80;;
50363;SDS011;36272;59.400;17.982;2023-07-22T03:49:35;8.00;;;1.83;;
50363;SDS011;36272;59.400;17.982;2023-07-22T03:54:36;9.98;;;1.67;;
50363;SDS011;36272;59.400;17.982;2023-07-22T03:59:39;5.13;;;1.35;;
50363;SDS011;36272;59.400;17.982;2023-07-22T04:04:43;7.85;;;1.75;;
50363;SDS011;36272;59.400;17.982;2023-07-22T04:09:45;5.68;;;1.67;;
50363;SDS011;36272;59.400;17.982;2023-07-22T04:14:47;6.43;;;1.60;;
50363;SDS011;36272;59.400;17.982;2023-07-22T04:19:50;5.40;;;1.50;;
50363;SDS011;36272;59.400;17.982;2023-07-22T04:24:53;3.83;;;1.52;;
50363;SDS011;36272;59.400;17.982;2023-07-22T04:29:55;6.28;;;1.77;;
50363;SDS011;36272;59.400;17.982;2023-07-22T04:34:57;6.93;;;1.83;;
50363;SDS011;36272;59.400;17.982;2023-07-22T04:39:58;5.05;;;1.35;;
50363;SDS011;36272;59.400;17.982;2023-07-22T04:45:00;5.30;;;2.00;;
50363;SDS011;36272;59.400;17.982;2023-07-22T04:50:02;8.13;;;1.50;;
50363;SDS011;36272;59.400;17.982;2023-07-22T04:55:05;6.07;;;1.50;;
50363;SDS011;36272;59.400;17.982;2023-07-22T05:00:13;2.23;;;1.40;;
50363;SDS011;36272;59.400;17.982;2023-07-22T05:05:17;7.18;;;1.35;;
50363;SDS011;36272;59.400;17.982;2023-07-22T05:10:19;4.57;;;1.42;;
50363;SDS011;36272;59.400;17.982;2023-07-22T05:15:20;4.63;;;1.45;;
50363;SDS011;36272;59.400;17.982;2023-07-22T05:20:22;6.75;;;1.60;;
50363;SDS011;36272;59.400;17.982;2023-07-22T05:25:23;3.40;;;1.33;;
50363;SDS011;36272;59.400;17.982;2023-07-22T05:30:25;5.22;;;1.45;;
50363;SDS011;36272;59.400;17.982;2023-07-22T05:35:27;12.02;;;2.20;;
50363;SDS011;36272;59.400;17.982;2023-07-22T05:40:28;7.63;;;1.65;;
50363;SDS011;36272;59.400;17.982;2023-07-22T05:45:30;7.70;;;1.73;;
50363;SDS011;36272;59.400;17.982;2023-07-22T05:50:32;8.52;;;2.13;;
50363;SDS011;36272;59.400;17.982;2023-07-22T05:55:33;10.65;;;1.83;;
50363;SDS011;36272;59.400;17.982;2023-07-22T06:00:35;9.13;;;2.00;;
50363;SDS011;36272;59.400;17.982;2023-07-22T06:05:36;4.97;;;1.17;;
50363;SDS011;36272;59.400;17.982;2023-07-22T06:10:39;5.20;;;1.30;;
50363;SDS011;36272;59.400;17.982;2023-07-22T06:15:43;5.60;;;1.30;;
50363;SDS011;36272;59.400;17.982;2023-07-22T06:20:45;11.93;;;1.80;;
50363;SDS011;36272;59.400;17.982;2023-07-22T06:25:46;5.07;;;1.25;;
50363;SDS011;36272;59.400;17.982;2023-07-22T06:30:48;8.60;;;2.25;;
50363;SDS011;36272;59.400;17.982;2023-07-22T06:35:50;5.82;;;1.42;;
50363;SDS011;36272;59.400;17.982;2023-07-22T06:40:54;10.43;;;1.77;;
50363;SDS011;36272;59.400;17.982;2023-07-22T06:45:56;6.72;;;1.75;;
50363;SDS011;36272;59.400;17.982;2023-07-22T06:51:01;6.13;;;1.50;;
50363;SDS011;36272;59.400;17.982;2023-07-22T06:56:02;6.95;;;1.75;;
50363;SDS011;36272;59.400;17.982;2023-07-22T07:01:04;7.07;;;2.00;;
50363;SDS011;36272;59.400;17.982;2023-07-22T07:06:06;5.85;;;1.30;;
50363;SDS011;36272;59.400;17.982;2023-07-22T07:11:07;7.88;;;1.33;;
50363;SDS011;36272;59.400;17.982;2023-07-22T07:16:22;11.50;;;1.50;;
50363;SDS011;36272;59.400;17.982;2023-07-22T07:21:26;9.27;;;1.63;;
50363;SDS011;36272;59.400;17.982;2023-07-22T07:26:28;6.05;;;1.30;;
50363;SDS011;36272;59.400;17.982;2023-07-22T07:31:29;6.22;;;1.33;;
50363;SDS011;36272;59.400;17.982;2023-07-22T07:36:31;8.23;;;1.60;;
50363;SDS011;36272;59.400;17.982;2023-07-22T07:41:34;5.68;;;1.80;;
50363;SDS011;36272;59.400;17.982;2023-07-22T07:46:36;13.88;;;1.65;;
50363;SDS011;36272;59.400;17.982;2023-07-22T07:51:38;12.00;;;1.77;;
50363;SDS011;36272;59.400;17.982;2023-07-22T07:56:39;10.18;;;1.70;;
50363;SDS011;36272;59.400;17.982;2023-07-22T08:01:41;5.65;;;1.77;;
50363;SDS011;36272;59.400;17.982;2023-07-22T08:06:43;7.07;;;1.20;;
50363;SDS011;36272;59.400;17.982;2023-07-22T08:11:51;5.38;;;1.42;;
50363;SDS011;36272;59.400;17.982;2023-07-22T08:16:53;6.35;;;1.17;;
50363;SDS011;36272;59.400;17.982;2023-07-22T08:21:55;5.47;;;1.20;;
50363;SDS011;36272;59.400;17.982;2023-07-22T08:26:56;7.47;;;1.80;;
50363;SDS011;36272;59.400;17.982;2023-07-22T08:31:58;2.88;;;1.02;;
50363;SDS011;36272;59.400;17.982;2023-07-22T08:37:00;5.90;;;1.40;;
50363;SDS011;36272;59.400;17.982;2023-07-22T08:42:02;5.15;;;1.30;;
50363;SDS011;36272;59.400;17.982;2023-07-22T08:47:05;2.45;;;0.80;;
50363;SDS011;36272;59.400;17.982;2023-07-22T08:52:15;3.95;;;0.98;;
50363;SDS011;36272;59.400;17.982;2023-07-22T08:57:19;2.90;;;1.00;;
50363;SDS011;36272;59.400;17.982;2023-07-22T09:02:21;5.45;;;1.10;;
50363;SDS011;36272;59.400;17.982;2023-07-22T09:07:23;4.47;;;1.45;;
50363;SDS011;36272;59.400;17.982;2023-07-22T09:12:25;4.90;;;1.20;;
50363;SDS011;36272;59.400;17.982;2023-07-22T09:17:27;4.88;;;1.10;;
50363;SDS011;36272;59.400;17.982;2023-07-22T09:22:29;4.85;;;0.95;;
50363;SDS011;36272;59.400;17.982;2023-07-22T09:27:33;4.25;;;0.82;;
50363;SDS011;36272;59.400;17.982;2023-07-22T09:32:40;3.13;;;0.80;;
50363;SDS011;36272;59.400;17.982;2023-07-22T09:37:42;3.88;;;0.80;;
50363;SDS011;36272;59.400;17.982;2023-07-22T09:42:47;4.90;;;0.80;;
50363;SDS011;36272;59.400;17.982;2023-07-22T09:47:54;5.25;;;1.10;;
50363;SDS011;36272;59.400;17.982;2023-07-22T09:52:57;2.47;;;0.88;;
50363;SDS011;36272;59.400;17.982;2023-07-22T09:58:03;3.47;;;1.08;;
50363;SDS011;36272;59.400;17.982;2023-07-22T10:03:12;4.32;;;1.00;;
50363;SDS011;36272;59.400;17.982;2023-07-22T10:08:15;4.45;;;1.00;;
50363;SDS011;36272;59.400;17.982;2023-07-22T10:13:20;3.20;;;1.47;;
50363;SDS011;36272;59.400;17.982;2023-07-22T10:18:22;4.72;;;1.27;;
50363;SDS011;36272;59.400;17.982;2023-07-22T10:23:25;6.85;;;1.60;;
50363;SDS011;36272;59.400;17.982;2023-07-22T10:28:28;3.22;;;1.05;;
50363;SDS011;36272;59.400;17.982;2023-07-22T10:33:30;6.28;;;1.85;;
50363;SDS011;36272;59.400;17.982;2023-07-22T10:38:32;5.18;;;1.48;;
50363;SDS011;36272;59.400;17.982;2023-07-22T10:43:35;2.05;;;1.13;;
50363;SDS011;36272;59.400;17.982;2023-07-22T10:48:37;6.05;;;2.00;;
50363;SDS011;36272;59.400;17.982;2023-07-22T10:53:41;5.53;;;1.30;;
50363;SDS011;36272;59.400;17.982;2023-07-22T11:14:32;7.87;;;2.20;;
50363;SDS011;36272;59.400;17.982;2023-07-22T11:19:35;1.98;;;1.50;;
50363;SDS011;36272;59.400;17.982;2023-07-22T11:24:37;6.05;;;1.92;;
50363;SDS011;36272;59.400;17.982;2023-07-22T11:29:39;2.13;;;1.33;;
50363;SDS011;36272;59.400;17.982;2023-07-22T11:34:41;2.55;;;1.65;;
50363;SDS011;36272;59.400;17.982;2023-07-22T11:39:45;3.93;;;2.20;;
50363;SDS011;36272;59.400;17.982;2023-07-22T11:44:47;2.88;;;1.73;;
50363;SDS011;36272;59.400;17.982;2023-07-22T11:49:49;2.95;;;1.75;;
50363;SDS011;36272;59.400;17.982;2023-07-22T11:54:50;3.50;;;1.70;;
50363;SDS011;36272;59.400;17.982;2023-07-22T11:59:55;2.80;;;1.63;;
50363;SDS011;36272;59.400;17.982;2023-07-22T12:04:59;5.10;;;1.85;;
50363;SDS011;36272;59.400;17.982;2023-07-22T12:10:02;3.55;;;2.00;;
50363;SDS011;36272;59.400;17.982;2023-07-22T12:15:10;3.33;;;1.80;;
50363;SDS011;36272;59.400;17.982;2023-07-22T12:20:24;5.80;;;2.00;;
50363;SDS011;36272;59.400;17.982;2023-07-22T12:25:31;3.30;;;2.10;;
50363;SDS011;36272;59.400;17.982;2023-07-22T12:30:33;4.20;;;1.80;;
50363;SDS011;36272;59.400;17.982;2023-07-22T12:35:34;4.20;;;2.15;;
50363;SDS011;36272;59.400;17.982;2023-07-22T12:40:36;2.60;;;1.73;;
50363;SDS011;36272;59.400;17.982;2023-07-22T12:45:38;7.78;;;2.28;;
50363;SDS011;36272;59.400;17.982;2023-07-22T12:50:39;3.28;;;2.13;;
50363;SDS011;36272;59.400;17.982;2023-07-22T12:55:41;3.63;;;2.08;;
50363;SDS011;36272;59.400;17.982;2023-07-22T13:00:43;5.43;;;2.10;;
50363;SDS011;36272;59.400;17.982;2023-07-22T13:05:44;7.45;;;2.30;;
50363;SDS011;36272;59.400;17.982;2023-07-22T13:10:46;3.20;;;1.90;;
50363;SDS011;36272;59.400;17.982;2023-07-22T13:15:48;4.00;;;2.00;;
50363;SDS011;36272;59.400;17.982;2023-07-22T13:20:50;2.88;;;2.10;;
50363;SDS011;36272;59.400;17.982;2023-07-22T13:25:51;2.75;;;2.28;;
50363;SDS011;36272;59.400;17.982;2023-07-22T13:30:53;5.05;;;2.47;;
50363;SDS011;36272;59.400;17.982;2023-07-22T13:35:54;3.15;;;2.35;;
50363;SDS011;36272;59.400;17.982;2023-07-22T13:40:57;3.03;;;2.17;;
50363;SDS011;36272;59.400;17.982;2023-07-22T13:45:59;3.55;;;1.95;;
50363;SDS011;36272;59.400;17.982;2023-07-22T13:51:01;5.03;;;2.40;;
50363;SDS011;36272;59.400;17.982;2023-07-22T13:56:02;4.63;;;2.30;;
50363;SDS011;36272;59.400;17.982;2023-07-22T14:01:04;3.85;;;2.50;;
50363;SDS011;36272;59.400;17.982;2023-07-22T14:06:06;3.63;;;1.90;;
50363;SDS011;36272;59.400;17.982;2023-07-22T14:11:07;3.00;;;2.20;;
50363;SDS011;36272;59.400;17.982;2023-07-22T14:16:11;4.00;;;2.30;;
50363;SDS011;36272;59.400;17.982;2023-07-22T14:21:12;4.33;;;2.53;;
50363;SDS011;36272;59.400;17.982;2023-07-22T14:26:14;3.88;;;2.35;;
50363;SDS011;36272;59.400;17.982;2023-07-22T14:31:21;5.85;;;2.50;;
50363;SDS011;36272;59.400;17.982;2023-07-22T14:36:22;7.50;;;3.03;;
50363;SDS011;36272;59.400;17.982;2023-07-22T14:41:25;6.57;;;2.50;;
50363;SDS011;36272;59.400;17.982;2023-07-22T14:46:27;12.23;;;3.97;;
50363;SDS011;36272;59.400;17.982;2023-07-22T14:51:28;7.38;;;3.10;;
50363;SDS011;36272;59.400;17.982;2023-07-22T14:56:31;12.68;;;3.50;;
50363;SDS011;36272;59.400;17.982;2023-07-22T15:01:37;7.03;;;2.80;;
50363;SDS011;36272;59.400;17.982;2023-07-22T15:06:39;10.65;;;3.70;;
50363;SDS011;36272;59.400;17.982;2023-07-22T15:11:41;8.15;;;4.15;;
50363;SDS011;36272;59.400;17.982;2023-07-22T15:16:43;7.95;;;3.70;;
50363;SDS011;36272;59.400;17.982;2023-07-22T15:21:59;8.40;;;3.78;;
50363;SDS011;36272;59.400;17.982;2023-07-22T15:27:01;6.43;;;3.75;;
50363;SDS011;36272;59.400;17.982;2023-07-22T15:32:03;9.50;;;3.92;;
50363;SDS011;36272;59.400;17.982;2023-07-22T15:37:04;6.03;;;3.60;;
50363;SDS011;36272;59.400;17.982;2023-07-22T15:42:06;8.80;;;3.00;;
50363;SDS011;36272;59.400;17.982;2023-07-22T15:47:08;9.75;;;3.40;;
50363;SDS011;36272;59.400;17.982;2023-07-22T15:52:09;6.63;;;2.90;;
50363;SDS011;36272;59.400;17.982;2023-07-22T15:57:11;5.25;;;3.17;;
50363;SDS011;36272;59.400;17.982;2023-07-22T16:02:13;4.35;;;2.97;;
50363;SDS011;36272;59.400;17.982;2023-07-22T16:07:15;2.90;;;2.00;;
50363;SDS011;36272;59.400;17.982;2023-07-22T16:12:23;6.32;;;2.70;;
50363;SDS011;36272;59.400;17.982;2023-07-22T16:17:24;3.38;;;2.20;;
50363;SDS011;36272;59.400;17.982;2023-07-22T16:22:26;2.60;;;2.08;;
50363;SDS011;36272;59.400;17.982;2023-07-22T16:27:28;3.88;;;1.98;;
50363;SDS011;36272;59.400;17.982;2023-07-22T16:32:35;3.65;;;1.77;;
50363;SDS011;36272;59.400;17.982;2023-07-22T16:37:36;2.90;;;1.67;;
50363;SDS011;36272;59.400;17.982;2023-07-22T16:42:38;5.25;;;1.70;;
50363;SDS011;36272;59.400;17.982;2023-07-22T16:47:40;3.80;;;1.80;;
50363;SDS011;36272;59.400;17.982;2023-07-22T16:52:42;2.50;;;1.63;;
50363;SDS011;36272;59.400;17.982;2023-07-22T16:57:43;2.22;;;1.63;;
50363;SDS011;36272;59.400;17.982;2023-07-22T17:02:45;2.92;;;1.73;;
50363;SDS011;36272;59.400;17.982;2023-07-22T17:07:47;5.63;;;1.85;;
50363;SDS011;36272;59.400;17.982;2023-07-22T17:12:53;5.53;;;1.60;;
50363;SDS011;36272;59.400;17.982;2023-07-22T17:17:55;3.58;;;1.45;;
50363;SDS011;36272;59.400;17.982;2023-07-22T17:22:56;3.28;;;1.98;;
50363;SDS011;36272;59.400;17.982;2023-07-22T17:27:58;7.40;;;2.00;;
50363;SDS011;36272;59.400;17.982;2023-07-22T17:33:01;4.63;;;2.20;;
50363;SDS011;36272;59.400;17.982;2023-07-22T17:38:05;3.22;;;2.00;;
50363;SDS011;36272;59.400;17.982;2023-07-22T17:43:07;4.93;;;1.83;;
50363;SDS011;36272;59.400;17.982;2023-07-22T17:48:10;4.07;;;1.92;;
50363;SDS011;36272;59.400;17.982;2023-07-22T17:53:11;3.97;;;1.90;;
50363;SDS011;36272;59.400;17.982;2023-07-22T17:58:13;3.20;;;2.25;;
50363;SDS011;36272;59.400;17.982;2023-07-22T18:03:15;3.30;;;1.88;;
50363;SDS011;36272;59.400;17.982;2023-07-22T18:08:16;4.60;;;1.73;;
50363;SDS011;36272;59.400;17.982;2023-07-22T18:13:19;5.28;;;1.90;;
50363;SDS011;36272;59.400;17.982;2023-07-22T18:18:20;3.65;;;1.80;;
50363;SDS011;36272;59.400;17.982;2023-07-22T18:23:22;2.58;;;1.60;;
50363;SDS011;36272;59.400;17.982;2023-07-22T18:28:24;3.33;;;1.67;;
50363;SDS011;36272;59.400;17.982;2023-07-22T18:33:27;2.65;;;1.67;;
50363;SDS011;36272;59.400;17.982;2023-07-22T18:38:28;5.15;;;2.10;;
50363;SDS011;36272;59.400;17.982;2023-07-22T18:43:30;9.38;;;2.22;;
50363;SDS011;36272;59.400;17.982;2023-07-22T18:48:32;3.13;;;1.98;;
50363;SDS011;36272;59.400;17.982;2023-07-22T18:53:33;2.70;;;1.80;;
50363;SDS011;36272;59.400;17.982;2023-07-22T18:58:35;2.47;;;1.80;;
50363;SDS011;36272;59.400;17.982;2023-07-22T19:03:37;3.13;;;1.77;;
50363;SDS011;36272;59.400;17.982;2023-07-22T19:08:38;3.15;;;1.80;;
50363;SDS011;36272;59.400;17.982;2023-07-22T19:13:40;3.15;;;1.98;;
50363;SDS011;36272;59.400;17.982;2023-07-22T19:18:42;3.25;;;2.25;;
50363;SDS011;36272;59.400;17.982;2023-07-22T19:23:43;4.07;;;2.03;;
50363;SDS011;36272;59.400;17.982;2023-07-22T19:28:45;4.70;;;2.22;;
50363;SDS011;36272;59.400;17.982;2023-07-22T19:33:47;2.78;;;1.98;;
50363;SDS011;36272;59.400;17.982;2023-07-22T19:38:48;4.47;;;1.73;;
50363;SDS011;36272;59.400;17.982;2023-07-22T19:43:50;5.03;;;1.80;;
50363;SDS011;36272;59.400;17.982;2023-07-22T19:48:52;3.58;;;2.10;;
50363;SDS011;36272;59.400;17.982;2023-07-22T19:53:53;5.90;;;2.00;;
50363;SDS011;36272;59.400;17.982;2023-07-22T19:58:55;2.38;;;1.73;;
50363;SDS011;36272;59.400;17.982;2023-07-22T20:03:56;3.47;;;1.90;;
50363;SDS011;36272;59.400;17.982;2023-07-22T20:08:58;4.85;;;2.20;;
50363;SDS011;36272;59.400;17.982;2023-07-22T20:14:00;4.55;;;2.25;;
50363;SDS011;36272;59.400;17.982;2023-07-22T20:24:07;6.82;;;2.25;;
50363;SDS011;36272;59.400;17.982;2023-07-22T20:29:08;2.67;;;1.85;;
50363;SDS011;36272;59.400;17.982;2023-07-22T20:34:10;2.95;;;1.92;;
50363;SDS011;36272;59.400;17.982;2023-07-22T20:39:12;4.38;;;1.88;;
50363;SDS011;36272;59.400;17.982;2023-07-22T20:44:13;5.78;;;2.05;;
50363;SDS011;36272;59.400;17.982;2023-07-22T20:49:15;5.45;;;1.88;;
50363;SDS011;36272;59.400;17.982;2023-07-22T20:54:16;2.47;;;1.92;;
50363;SDS011;36272;59.400;17.982;2023-07-22T20:59:18;3.45;;;1.90;;
50363;SDS011;36272;59.400;17.982;2023-07-22T21:04:19;2.80;;;1.80;;
50363;SDS011;36272;59.400;17.982;2023-07-22T21:09:21;3.88;;;2.17;;
50363;SDS011;36272;59.400;17.982;2023-07-22T21:14:23;3.20;;;1.77;;
50363;SDS011;36272;59.400;17.982;2023-07-22T21:19:24;4.05;;;1.88;;
50363;SDS011;36272;59.400;17.982;2023-07-22T21:24:26;2.95;;;1.60;;
50363;SDS011;36272;59.400;17.982;2023-07-22T21:29:28;4.03;;;1.75;;
50363;SDS011;36272;59.400;17.982;2023-07-22T21:34:32;6.20;;;2.10;;
50363;SDS011;36272;59.400;17.982;2023-07-22T21:39:34;4.32;;;1.63;;
50363;SDS011;36272;59.400;17.982;2023-07-22T21:44:38;2.60;;;1.65;;
50363;SDS011;36272;59.400;17.982;2023-07-22T21:49:40;4.70;;;1.77;;
50363;SDS011;36272;59.400;17.982;2023-07-22T21:54:42;2.38;;;1.65;;
50363;SDS011;36272;59.400;17.982;2023-07-22T21:59:43;3.45;;;1.67;;
50363;SDS011;36272;59.400;17.982;2023-07-22T22:04:45;2.63;;;1.60;;
50363;SDS011;36272;59.400;17.982;2023-07-22T22:09:47;2.78;;;1.83;;
50363;SDS011;36272;59.400;17.982;2023-07-22T22:14:52;4.85;;;1.90;;
50363;SDS011;36272;59.400;17.982;2023-07-22T22:19:54;3.53;;;1.73;;
50363;SDS011;36272;59.400;17.982;2023-07-22T22:24:56;3.17;;;2.00;;
50363;SDS011;36272;59.400;17.982;2023-07-22T22:29:58;3.03;;;1.95;;
50363;SDS011;36272;59.400;17.982;2023-07-22T22:34:59;3.92;;;2.00;;
50363;SDS011;36272;59.400;17.982;2023-07-22T22:40:01;5.55;;;2.13;;
50363;SDS011;36272;59.400;17.982;2023-07-22T22:45:03;2.65;;;1.80;;
50363;SDS011;36272;59.400;17.982;2023-07-22T22:50:05;4.68;;;2.00;;
50363;SDS011;36272;59.400;17.982;2023-07-22T22:55:07;3.35;;;1.70;;
50363;SDS011;36272;59.400;17.982;2023-07-22T23:00:09;2.58;;;1.90;;
50363;SDS011;36272;59.400;17.982;2023-07-22T23:05:11;4.65;;;2.10;;
50363;SDS011;36272;59.400;17.982;2023-07-22T23:10:13;3.13;;;1.90;;
50363;SDS011;36272;59.400;17.982;2023-07-22T23:15:15;5.72;;;2.70;;
50363;SDS011;36272;59.400;17.982;2023-07-22T23:20:19;4.82;;;2.20;;
50363;SDS011;36272;59.400;17.982;2023-07-22T23:25:21;2.33;;;1.70;;
50363;SDS011;36272;59.400;17.982;2023-07-22T23:30:22;2.58;;;2.00;;
50363;SDS011;36272;59.400;17.982;2023-07-22T23:35:24;5.55;;;1.90;;
50363;SDS011;36272;59.400;17.982;2023-07-22T23:40:26;3.38;;;1.90;;
50363;SDS011;36272;59.400;17.982;2023-07-22T23:45:27;3.75;;;2.15;;
50363;SDS011;36272;59.400;17.982;2023-07-22T23:50:29;5.50;;;1.90;;
50363;SDS011;36272;59.400;17.982;2023-07-22T23:55:30;3.78;;;1.75;;
